createdAt,value
2023-05-14T00:00:59.115Z,12.18
2023-05-14T00:03:25.881Z,12.19
2023-05-14T00:05:54.617Z,12.18
2023-05-14T00:08:21.067Z,12.14
2023-05-14T00:10:52.435Z,12.10
2023-05-14T00:13:18.949Z,12.08
2023-05-14T00:15:45.507Z,12.05
2023-05-14T00:18:12.396Z,12.02
2023-05-14T00:20:41.506Z,12.01
2023-05-14T00:23:08.028Z,11.97
2023-05-14T00:25:34.678Z,11.93
2023-05-14T00:28:01.139Z,11.90
2023-05-14T00:30:27.686Z,11.85
2023-05-14T00:32:54.219Z,11.85
2023-05-14T00:35:22.950Z,11.83
2023-05-14T00:37:49.454Z,11.81
2023-05-14T00:40:16.004Z,11.77
2023-05-14T00:42:42.459Z,11.76
2023-05-14T00:45:09.312Z,11.74
2023-05-14T00:47:36.527Z,11.70
2023-05-14T00:50:06.522Z,11.67
2023-05-14T00:52:35.369Z,11.68
2023-05-14T00:55:08.140Z,11.67
2023-05-14T00:57:37.635Z,11.63
2023-05-14T01:00:04.759Z,11.60
2023-05-14T01:02:33.474Z,11.56
2023-05-14T01:05:00.167Z,11.56
2023-05-14T01:07:54.691Z,11.53
2023-05-14T01:10:27.954Z,11.50
2023-05-14T01:13:14.931Z,11.46
2023-05-14T01:15:42.989Z,11.42
2023-05-14T01:18:11.070Z,11.40
2023-05-14T01:20:42.176Z,11.38
2023-05-14T01:23:08.670Z,11.35
2023-05-14T01:25:35.396Z,11.33
2023-05-14T01:28:18.010Z,11.33
2023-05-14T01:30:54.166Z,11.28
2023-05-14T01:33:28.141Z,11.20
2023-05-14T01:35:58.559Z,11.19
2023-05-14T01:38:31.644Z,11.19
2023-05-14T01:41:00.064Z,11.19
2023-05-14T01:43:29.895Z,11.18
2023-05-14T01:45:56.553Z,11.15
2023-05-14T01:48:25.459Z,11.10
2023-05-14T01:50:54.231Z,11.09
2023-05-14T01:53:23.304Z,11.07
2023-05-14T01:55:49.731Z,11.07
2023-05-14T01:58:20.956Z,11.06
2023-05-14T02:00:49.685Z,11.04
2023-05-14T02:03:18.424Z,11.03
2023-05-14T02:05:47.376Z,10.98
2023-05-14T02:08:13.853Z,10.97
2023-05-14T02:10:40.384Z,10.94
2023-05-14T02:13:06.957Z,10.91
2023-05-14T02:15:33.444Z,10.88
2023-05-14T02:18:02.407Z,10.82
2023-05-14T02:20:28.945Z,10.84
2023-05-14T02:22:57.737Z,10.88
2023-05-14T02:25:26.817Z,10.80
2023-05-14T02:27:55.468Z,10.76
2023-05-14T02:30:24.434Z,10.73
2023-05-14T02:32:53.667Z,10.69
2023-05-14T02:35:20.198Z,10.65
2023-05-14T02:37:48.993Z,10.62
2023-05-14T02:40:20.452Z,10.57
2023-05-14T02:42:49.422Z,10.57
2023-05-14T02:45:16.160Z,10.55
2023-05-14T02:47:44.985Z,10.55
2023-05-14T02:50:11.558Z,10.54
2023-05-14T02:52:38.274Z,10.50
2023-05-14T02:55:07.578Z,10.47
2023-05-14T02:57:34.100Z,10.47
2023-05-14T03:00:00.543Z,10.47
2023-05-14T03:02:27.659Z,10.44
2023-05-14T03:04:54.482Z,10.43
2023-05-14T03:07:20.985Z,10.42
2023-05-14T03:09:47.454Z,10.39
2023-05-14T03:12:16.224Z,10.36
2023-05-14T03:14:44.959Z,10.32
2023-05-14T03:17:16.302Z,10.30
2023-05-14T03:19:45.117Z,10.26
2023-05-14T03:22:14.266Z,10.24
2023-05-14T03:24:40.904Z,10.23
2023-05-14T03:27:09.920Z,10.19
2023-05-14T03:29:36.371Z,10.17
2023-05-14T03:32:02.961Z,10.18
2023-05-14T03:34:31.696Z,10.17
2023-05-14T03:36:58.204Z,10.18
2023-05-14T03:39:24.789Z,10.15
2023-05-14T03:41:53.704Z,10.15
2023-05-14T03:44:22.617Z,10.15
2023-05-14T03:46:51.401Z,10.16
2023-05-14T03:49:17.959Z,10.16
2023-05-14T03:51:45.642Z,10.14
2023-05-14T03:54:14.334Z,10.13
2023-05-14T03:56:40.783Z,10.14
2023-05-14T03:59:12.149Z,10.17
2023-05-14T04:01:38.618Z,10.21
2023-05-14T04:04:05.137Z,10.24
2023-05-14T04:06:35.496Z,10.25
2023-05-14T04:09:04.450Z,10.25
2023-05-14T04:11:30.902Z,10.26
2023-05-14T04:13:59.962Z,10.26
2023-05-14T04:16:26.519Z,10.25
2023-05-14T04:18:55.493Z,10.23
2023-05-14T04:21:22.019Z,10.25
2023-05-14T04:23:48.549Z,10.25
2023-05-14T04:26:17.206Z,10.24
2023-05-14T04:28:45.746Z,10.23
2023-05-14T04:31:15.540Z,10.24
2023-05-14T04:33:44.225Z,10.25
2023-05-14T04:36:10.711Z,10.29
2023-05-14T04:38:37.143Z,10.32
2023-05-14T04:41:03.731Z,10.39
2023-05-14T04:43:32.544Z,10.43
2023-05-14T04:45:59.057Z,10.46
2023-05-14T04:48:30.200Z,10.55
2023-05-14T04:50:56.664Z,10.68
2023-05-14T04:53:25.593Z,10.72
2023-05-14T04:55:52.154Z,10.85
2023-05-14T04:58:20.949Z,10.93
2023-05-14T05:00:50.066Z,11.04
2023-05-14T05:03:18.779Z,11.42
2023-05-14T05:05:47.895Z,12.10
2023-05-14T05:08:14.354Z,12.69
2023-05-14T05:10:43.905Z,13.15
2023-05-14T05:13:10.420Z,13.48
2023-05-14T05:15:36.902Z,13.58
2023-05-14T05:18:06.493Z,13.61
2023-05-14T05:20:33.055Z,13.26
2023-05-14T05:22:59.551Z,13.01
2023-05-14T05:25:28.245Z,12.72
2023-05-14T05:27:59.618Z,12.77
2023-05-14T05:30:28.495Z,12.67
2023-05-14T05:32:57.650Z,12.62
2023-05-14T05:35:29.042Z,13.12
2023-05-14T05:37:55.771Z,13.40
2023-05-14T05:40:22.455Z,13.50
2023-05-14T05:42:49.019Z,13.33
2023-05-14T05:45:17.700Z,12.83
2023-05-14T05:47:44.256Z,12.51
2023-05-14T05:50:11.105Z,12.25
2023-05-14T05:52:37.914Z,12.13
2023-05-14T05:55:07.209Z,12.08
2023-05-14T05:57:33.840Z,12.17
2023-05-14T06:00:09.859Z,12.17
2023-05-14T06:02:36.361Z,12.18
2023-05-14T06:05:03.024Z,12.27
2023-05-14T06:07:32.023Z,12.34
2023-05-14T06:09:58.459Z,12.42
2023-05-14T06:12:24.909Z,12.76
2023-05-14T06:14:55.531Z,12.64
2023-05-14T06:17:24.505Z,12.66
2023-05-14T06:19:52.160Z,12.85
2023-05-14T06:22:18.946Z,12.99
2023-05-14T06:24:47.806Z,12.97
2023-05-14T06:27:16.634Z,13.28
2023-05-14T06:29:43.118Z,13.91
2023-05-14T06:32:10.314Z,13.92
2023-05-14T06:34:36.958Z,13.68
2023-05-14T06:37:06.990Z,13.61
2023-05-14T06:39:33.499Z,13.79
2023-05-14T06:42:05.192Z,13.98
2023-05-14T06:44:34.236Z,14.14
2023-05-14T06:47:00.783Z,14.00
2023-05-14T06:49:27.235Z,14.49
2023-05-14T06:51:56.100Z,16.02
2023-05-14T06:54:22.706Z,16.91
2023-05-14T06:56:49.225Z,17.66
2023-05-14T06:59:17.981Z,17.92
2023-05-14T07:01:44.464Z,16.89
2023-05-14T07:04:11.068Z,15.98
2023-05-14T07:06:37.683Z,16.89
2023-05-14T07:09:07.671Z,16.93
2023-05-14T07:11:36.643Z,17.92
2023-05-14T07:14:03.090Z,18.73
2023-05-14T07:16:29.623Z,18.61
2023-05-14T07:18:58.427Z,18.41
2023-05-14T07:21:24.980Z,18.14
2023-05-14T07:23:53.795Z,18.16
2023-05-14T07:26:21.373Z,17.81
2023-05-14T07:28:47.844Z,17.90
2023-05-14T07:31:16.659Z,18.30
2023-05-14T07:33:45.965Z,18.50
2023-05-14T07:36:12.573Z,18.66
2023-05-14T07:38:39.150Z,18.54
2023-05-14T07:41:07.930Z,18.44
2023-05-14T07:43:38.443Z,18.61
2023-05-14T07:46:04.920Z,18.50
2023-05-14T07:48:35.327Z,18.44
2023-05-14T07:51:01.864Z,19.01
2023-05-14T07:53:32.960Z,19.32
2023-05-14T07:56:00.179Z,19.31
2023-05-14T07:58:28.011Z,19.23
2023-05-14T08:00:57.696Z,19.12
2023-05-14T08:03:24.349Z,20.00
2023-05-14T08:05:52.495Z,20.14
2023-05-14T08:08:19.025Z,19.72
2023-05-14T08:10:45.698Z,19.35
2023-05-14T08:13:15.296Z,19.26
2023-05-14T08:15:41.810Z,19.03
2023-05-14T08:18:08.334Z,18.78
2023-05-14T08:20:34.878Z,18.52
2023-05-14T08:23:07.289Z,18.33
2023-05-14T08:25:36.035Z,18.68
2023-05-14T08:28:04.897Z,18.89
2023-05-14T08:30:33.781Z,19.15
2023-05-14T08:33:00.613Z,19.38
2023-05-14T08:35:29.496Z,19.54
2023-05-14T08:37:57.096Z,19.39
2023-05-14T08:40:25.185Z,19.51
2023-05-14T08:42:52.908Z,19.33
2023-05-14T08:45:26.499Z,19.38
2023-05-14T08:47:53.738Z,19.51
2023-05-14T08:50:22.861Z,19.54
2023-05-14T08:52:52.494Z,19.70
2023-05-14T08:55:19.846Z,19.92
2023-05-14T08:57:46.470Z,19.86
2023-05-14T09:00:14.255Z,20.17
2023-05-14T09:02:44.215Z,20.02
2023-05-14T09:05:10.852Z,19.85
2023-05-14T09:07:39.892Z,19.70
2023-05-14T09:10:08.945Z,19.46
2023-05-14T09:12:35.529Z,19.67
2023-05-14T09:15:02.072Z,19.75
2023-05-14T09:17:28.819Z,19.68
2023-05-14T09:19:56.129Z,20.07
2023-05-14T09:22:24.939Z,19.90
2023-05-14T09:25:05.823Z,20.02
2023-05-14T09:27:34.908Z,20.14
2023-05-14T09:30:12.480Z,19.88
2023-05-14T09:32:44.248Z,19.75
2023-05-14T09:35:13.193Z,20.10
2023-05-14T09:37:42.734Z,20.04
2023-05-14T09:40:10.517Z,19.93
2023-05-14T09:42:37.037Z,19.68
2023-05-14T09:45:06.304Z,19.84
2023-05-14T09:47:32.960Z,20.00
2023-05-14T09:50:05.086Z,20.29
2023-05-14T09:52:31.719Z,20.38
2023-05-14T09:54:58.484Z,20.37
2023-05-14T09:57:25.111Z,20.40
2023-05-14T09:59:51.634Z,20.45
2023-05-14T10:02:23.121Z,20.23
2023-05-14T10:05:02.558Z,20.25
2023-05-14T10:07:35.931Z,20.55
2023-05-14T10:10:07.104Z,20.25
2023-05-14T10:12:41.113Z,20.35
2023-05-14T10:15:24.452Z,20.41
2023-05-14T10:18:00.375Z,20.64
2023-05-14T10:20:30.212Z,20.86
2023-05-14T10:22:59.449Z,20.66
2023-05-14T10:25:28.263Z,20.66
2023-05-14T10:27:55.383Z,20.71
2023-05-14T10:30:29.203Z,20.69
2023-05-14T10:33:12.488Z,20.83
2023-05-14T10:36:01.917Z,20.88
2023-05-14T10:38:38.174Z,20.92
2023-05-14T10:41:12.269Z,21.02
2023-05-14T10:43:40.538Z,21.12
2023-05-14T10:46:09.766Z,21.18
2023-05-14T10:48:41.844Z,20.98
2023-05-14T10:51:12.358Z,21.14
2023-05-14T10:53:46.793Z,21.22
2023-05-14T10:56:14.600Z,21.23
2023-05-14T10:58:45.160Z,21.18
2023-05-14T11:01:15.605Z,21.00
2023-05-14T11:03:46.836Z,20.93
2023-05-14T11:06:20.735Z,20.88
2023-05-14T11:08:50.026Z,21.28
2023-05-14T11:11:19.170Z,21.32
2023-05-14T11:13:46.180Z,21.53
2023-05-14T11:16:23.397Z,21.56
2023-05-14T11:19:00.826Z,21.51
2023-05-14T11:21:32.502Z,21.60
2023-05-14T11:24:02.178Z,21.55
2023-05-14T11:26:28.757Z,21.55
2023-05-14T11:28:55.702Z,21.53
2023-05-14T11:31:23.302Z,21.86
2023-05-14T11:33:51.757Z,21.95
2023-05-14T11:36:18.203Z,22.14
2023-05-14T11:38:49.015Z,22.23
2023-05-14T11:41:17.913Z,22.08
2023-05-14T11:43:46.673Z,21.86
2023-05-14T11:46:20.207Z,21.89
2023-05-14T11:48:49.112Z,21.79
2023-05-14T11:51:15.589Z,21.69
2023-05-14T11:53:42.162Z,21.77
2023-05-14T11:56:09.986Z,21.77
2023-05-14T11:58:38.857Z,21.75
2023-05-14T12:01:07.689Z,21.94
2023-05-14T12:03:37.385Z,21.94
2023-05-14T12:06:07.357Z,22.17
2023-05-14T12:08:37.293Z,22.25
2023-05-14T12:11:06.614Z,22.20
2023-05-14T12:13:33.246Z,22.15
2023-05-14T12:16:04.090Z,22.31
2023-05-14T12:18:33.737Z,22.45
2023-05-14T12:21:04.487Z,22.68
2023-05-14T12:23:32.149Z,22.73
2023-05-14T12:26:06.528Z,22.40
2023-05-14T12:28:35.417Z,22.16
2023-05-14T12:31:03.660Z,22.14
2023-05-14T12:33:30.565Z,22.23
2023-05-14T12:36:14.084Z,22.31
2023-05-14T12:38:51.379Z,22.34
2023-05-14T12:41:18.993Z,22.31
2023-05-14T12:43:48.547Z,22.30
2023-05-14T12:46:17.791Z,22.50
2023-05-14T12:48:46.693Z,22.51
2023-05-14T12:51:13.464Z,22.63
2023-05-14T12:53:39.967Z,22.83
2023-05-14T12:56:07.044Z,22.69
2023-05-14T12:58:35.915Z,22.51
2023-05-14T13:01:02.594Z,22.68
2023-05-14T13:03:31.400Z,22.65
2023-05-14T13:05:58.158Z,22.58
2023-05-14T13:08:26.659Z,22.55
2023-05-14T13:10:54.389Z,22.52
2023-05-14T13:13:21.046Z,22.49
2023-05-14T13:15:49.820Z,22.73
2023-05-14T13:18:17.631Z,22.88
2023-05-14T13:20:46.605Z,22.85
2023-05-14T13:23:15.650Z,22.73
2023-05-14T13:25:42.240Z,22.56
2023-05-14T13:28:11.282Z,22.34
2023-05-14T13:30:37.941Z,22.34
2023-05-14T13:33:05.416Z,22.33
2023-05-14T13:35:34.687Z,22.37
2023-05-14T13:38:01.283Z,22.30
2023-05-14T13:40:27.757Z,22.09
2023-05-14T13:42:56.514Z,22.16
2023-05-14T13:45:25.380Z,22.20
2023-05-14T13:47:52.014Z,22.44
2023-05-14T13:50:22.236Z,22.52
2023-05-14T13:52:53.539Z,22.38
2023-05-14T13:55:22.515Z,22.47
2023-05-14T13:57:49.283Z,22.48
2023-05-14T14:00:18.420Z,22.29
2023-05-14T14:02:44.870Z,21.98
2023-05-14T14:05:11.462Z,22.19
2023-05-14T14:07:39.614Z,22.34
2023-05-14T14:10:06.789Z,22.03
2023-05-14T14:12:33.534Z,21.91
2023-05-14T14:15:01.119Z,22.10
2023-05-14T14:17:27.569Z,22.02
2023-05-14T14:19:54.042Z,21.94
2023-05-14T14:24:51.823Z,22.00
2023-05-14T14:27:18.262Z,22.04
2023-05-14T14:29:47.019Z,21.90
2023-05-14T14:32:16.061Z,21.88
2023-05-14T14:34:44.692Z,21.91
2023-05-14T14:37:13.485Z,21.94
2023-05-14T14:39:40.377Z,21.87
2023-05-14T14:42:07.358Z,21.87
2023-05-14T14:44:36.305Z,21.82
2023-05-14T14:47:05.214Z,21.77
2023-05-14T14:49:34.203Z,21.80
2023-05-14T14:52:00.691Z,21.87
2023-05-14T14:54:27.205Z,21.97
2023-05-14T14:56:56.305Z,21.90
2023-05-14T14:59:23.022Z,21.77
2023-05-14T15:01:51.872Z,21.68
2023-05-14T15:04:21.644Z,21.62
2023-05-14T15:06:48.305Z,21.67
2023-05-14T15:09:17.112Z,21.54
2023-05-14T15:11:44.538Z,21.68
2023-05-14T15:14:10.911Z,21.69
2023-05-14T15:16:37.384Z,21.39
2023-05-14T15:19:03.999Z,21.23
2023-05-14T15:21:30.609Z,21.23
2023-05-14T15:23:57.071Z,21.14
2023-05-14T15:26:26.640Z,20.92
2023-05-14T15:28:53.189Z,20.93
2023-05-14T15:31:22.716Z,20.90
2023-05-14T15:33:53.013Z,20.83
2023-05-14T15:36:19.601Z,20.84
2023-05-14T15:38:46.112Z,20.81
2023-05-14T15:41:12.640Z,20.73
2023-05-14T15:43:41.624Z,20.71
2023-05-14T15:46:08.123Z,20.64
2023-05-14T15:48:35.065Z,20.57
2023-05-14T15:51:02.348Z,20.60
2023-05-14T15:53:31.066Z,20.49
2023-05-14T15:55:57.585Z,20.40
2023-05-14T15:58:24.055Z,20.28
2023-05-14T16:00:50.585Z,20.15
2023-05-14T16:03:17.498Z,20.13
2023-05-14T16:05:44.813Z,20.15
2023-05-14T16:08:11.562Z,20.15
2023-05-14T16:10:38.786Z,20.13
2023-05-14T16:13:09.753Z,20.11
2023-05-14T16:15:36.296Z,20.11
2023-05-14T16:18:02.865Z,20.12
2023-05-14T16:20:31.631Z,20.04
2023-05-14T16:22:58.238Z,19.91
2023-05-14T16:25:26.910Z,19.76
2023-05-14T16:27:53.444Z,19.73
2023-05-14T16:30:19.900Z,19.56
2023-05-14T16:32:49.601Z,19.58
2023-05-14T16:35:21.117Z,19.45
2023-05-14T16:37:47.549Z,19.44
2023-05-14T16:40:16.008Z,19.42
2023-05-14T16:42:42.551Z,19.38
2023-05-14T16:45:09.485Z,19.41
2023-05-14T16:47:40.756Z,19.47
2023-05-14T16:50:08.251Z,19.45
2023-05-14T16:52:39.275Z,19.27
2023-05-14T16:55:06.619Z,19.16
2023-05-14T16:57:34.259Z,19.13
2023-05-14T17:00:00.796Z,19.06
2023-05-14T17:02:29.607Z,19.00
2023-05-14T17:04:56.385Z,18.92
2023-05-14T17:07:23.085Z,18.81
2023-05-14T17:09:49.590Z,18.77
2023-05-14T17:12:16.157Z,18.80
2023-05-14T17:14:42.654Z,18.73
2023-05-14T17:17:09.318Z,18.60
2023-05-14T17:19:38.257Z,18.57
2023-05-14T17:22:05.916Z,18.49
2023-05-14T17:24:32.323Z,18.47
2023-05-14T17:27:01.759Z,18.30
2023-05-14T17:29:30.668Z,18.14
2023-05-14T17:32:00.329Z,18.07
2023-05-14T17:34:29.215Z,17.97
2023-05-14T17:36:58.084Z,17.80
2023-05-14T17:39:24.667Z,17.71
2023-05-14T17:41:51.258Z,17.64
2023-05-14T17:44:19.974Z,17.60
2023-05-14T17:46:46.835Z,17.54
2023-05-14T17:49:15.743Z,17.35
2023-05-14T17:51:46.827Z,17.22
2023-05-14T17:54:15.879Z,17.17
2023-05-14T17:56:42.496Z,17.09
2023-05-14T17:59:08.997Z,17.06
2023-05-14T18:01:35.562Z,16.99
2023-05-14T18:04:02.208Z,16.92
2023-05-14T18:06:33.552Z,16.90
2023-05-14T18:09:02.298Z,16.80
2023-05-14T18:11:33.889Z,16.67
2023-05-14T18:14:03.709Z,16.57
2023-05-14T18:16:30.786Z,16.49
2023-05-14T18:19:02.409Z,16.43
2023-05-14T18:21:28.972Z,16.32
2023-05-14T18:23:55.535Z,16.16
2023-05-14T18:26:26.824Z,16.02
2023-05-14T18:28:55.440Z,15.96
2023-05-14T18:31:22.104Z,15.83
2023-05-14T18:33:51.427Z,15.69
2023-05-14T18:36:20.413Z,15.70
2023-05-14T18:38:49.382Z,15.63
2023-05-14T18:41:15.875Z,15.52
2023-05-14T18:43:42.337Z,15.51
2023-05-14T18:46:08.953Z,15.44
2023-05-14T18:48:35.544Z,15.31
2023-05-14T18:51:02.085Z,15.22
2023-05-14T18:53:29.282Z,15.17
2023-05-14T18:55:56.225Z,15.14
2023-05-14T18:58:27.274Z,15.06
2023-05-14T19:00:58.964Z,15.00
2023-05-14T19:03:26.032Z,14.91
2023-05-14T19:05:57.689Z,14.84
2023-05-14T19:08:24.178Z,14.71
2023-05-14T19:10:52.991Z,14.63
2023-05-14T19:13:22.016Z,14.53
2023-05-14T19:15:48.506Z,14.42
2023-05-14T19:18:19.788Z,14.31
2023-05-14T19:20:48.664Z,14.25
2023-05-14T19:23:17.513Z,14.17
2023-05-14T19:25:46.262Z,14.11
2023-05-14T19:28:15.329Z,14.06
2023-05-14T19:30:41.830Z,14.04
2023-05-14T19:33:10.509Z,14.01
2023-05-14T19:35:39.430Z,13.97
2023-05-14T19:38:10.190Z,13.94
2023-05-14T19:40:36.957Z,13.89
2023-05-14T19:43:03.432Z,13.87
2023-05-14T19:45:39.022Z,13.83
2023-05-14T19:48:06.465Z,13.81
2023-05-14T19:50:33.419Z,13.77
2023-05-14T19:53:02.529Z,13.71
2023-05-14T19:55:31.932Z,13.66
2023-05-14T19:58:03.207Z,13.63
2023-05-14T20:00:32.131Z,13.57
2023-05-14T20:02:59.544Z,13.54
2023-05-14T20:05:26.905Z,13.49
2023-05-14T20:07:56.169Z,13.41
2023-05-14T20:10:23.490Z,13.36
2023-05-14T20:12:50.204Z,13.36
2023-05-14T20:15:16.853Z,13.34
2023-05-14T20:17:46.195Z,13.36
2023-05-14T20:20:12.685Z,13.33
2023-05-14T20:22:42.792Z,13.34
2023-05-14T20:25:10.082Z,13.36
2023-05-14T20:27:36.887Z,13.35
2023-05-14T20:30:06.433Z,13.28
2023-05-14T20:32:33.088Z,13.28
2023-05-14T20:35:02.908Z,13.23
2023-05-14T20:37:34.873Z,13.17
2023-05-14T20:40:06.088Z,13.15
2023-05-14T20:42:32.721Z,13.11
2023-05-14T20:44:59.233Z,13.12
2023-05-14T20:47:26.710Z,13.06
2023-05-14T20:49:53.310Z,13.03
2023-05-14T20:52:19.846Z,12.97
2023-05-14T20:54:46.480Z,12.92
2023-05-14T20:57:18.374Z,12.90
2023-05-14T20:59:48.920Z,12.89
2023-05-14T21:02:18.082Z,12.84
2023-05-14T21:04:49.315Z,12.82
2023-05-14T21:07:18.335Z,12.83
2023-05-14T21:09:50.706Z,12.81
2023-05-14T21:12:19.571Z,12.77
2023-05-14T21:14:50.933Z,12.71
2023-05-14T21:17:19.955Z,12.64
2023-05-14T21:19:46.407Z,12.63
2023-05-14T21:22:13.090Z,12.63
2023-05-14T21:24:39.552Z,12.61
2023-05-14T21:27:08.455Z,12.59
2023-05-14T21:29:34.964Z,12.61
2023-05-14T21:32:03.949Z,12.61
2023-05-14T21:34:32.002Z,12.62
2023-05-14T21:36:59.008Z,12.59
2023-05-14T21:39:27.895Z,12.60
2023-05-14T21:41:54.329Z,12.58
2023-05-14T21:44:23.681Z,12.55
2023-05-14T21:46:52.689Z,12.53
2023-05-14T21:49:21.555Z,12.51
2023-05-14T21:51:52.896Z,12.49
2023-05-14T21:54:22.003Z,12.45
2023-05-14T21:56:51.095Z,12.41
2023-05-14T21:59:17.536Z,12.37
2023-05-14T22:02:05.537Z,12.34
2023-05-14T22:04:35.535Z,12.33
2023-05-14T22:07:04.681Z,12.34
2023-05-14T22:09:36.305Z,12.33
2023-05-14T22:12:06.249Z,12.29
2023-05-14T22:14:32.949Z,12.29
2023-05-14T22:16:59.589Z,12.26
2023-05-14T22:19:31.056Z,12.21
2023-05-14T22:21:59.937Z,12.21
2023-05-14T22:24:26.428Z,12.20
2023-05-14T22:26:52.935Z,12.18
2023-05-14T22:29:21.900Z,12.14
2023-05-14T22:31:50.815Z,12.13
2023-05-14T22:34:19.923Z,12.12
2023-05-14T22:36:46.392Z,12.10
2023-05-14T22:39:15.433Z,12.09
2023-05-14T22:41:41.921Z,12.08
2023-05-14T22:44:08.465Z,12.03
2023-05-14T22:46:37.426Z,11.99
2023-05-14T22:49:04.027Z,11.99
2023-05-14T22:51:33.077Z,11.99
2023-05-14T22:54:01.654Z,12.00
2023-05-14T22:56:28.365Z,11.99
2023-05-14T22:58:54.797Z,11.96
2023-05-14T23:01:26.137Z,11.96
2023-05-14T23:03:55.247Z,11.92
2023-05-14T23:06:24.236Z,11.90
2023-05-14T23:08:50.800Z,11.90
2023-05-14T23:11:17.263Z,11.88
2023-05-14T23:13:43.709Z,11.89
2023-05-14T23:16:12.706Z,11.90
2023-05-14T23:18:41.509Z,11.88
2023-05-14T23:21:10.130Z,11.86
2023-05-14T23:23:36.694Z,11.90
2023-05-14T23:26:03.365Z,11.90
2023-05-14T23:28:32.284Z,11.90
2023-05-14T23:31:01.269Z,11.90
2023-05-14T23:33:27.825Z,11.87
2023-05-14T23:35:54.382Z,11.86
2023-05-14T23:38:21.266Z,11.83
2023-05-14T23:40:50.175Z,11.86
2023-05-14T23:43:16.958Z,11.84
2023-05-14T23:45:43.491Z,11.85
2023-05-14T23:48:10.004Z,11.78
2023-05-14T23:50:41.304Z,11.82
2023-05-14T23:53:07.897Z,11.87
2023-05-14T23:55:34.449Z,11.84
2023-05-14T23:58:00.963Z,11.78
